sensor_id;sensor_type;location;lat;lon;timestamp;pressure;altitude;pressure_sealevel;temperature;humidity
15674;BME280;7937;48.090;16.212;2022-12-18T00:03:00;99102.28;;;-2.55;87.36
15674;BME280;7937;48.090;16.212;2022-12-18T00:06:02;99096.25;;;-2.57;87.42
15674;BME280;7937;48.090;16.212;2022-12-18T00:09:04;99087.66;;;-2.56;87.84
15674;BME280;7937;48.090;16.212;2022-12-18T00:12:06;99101.44;;;-2.57;87.28
15674;BME280;7937;48.090;16.212;2022-12-18T00:15:16;99109.19;;;-2.58;87.73
15674;BME280;7937;48.090;16.212;2022-12-18T00:18:18;99106.59;;;-2.58;87.98
15674;BME280;7937;48.090;16.212;2022-12-18T00:21:21;99110.94;;;-2.62;88.01
15674;BME280;7937;48.090;16.212;2022-12-18T00:24:24;99107.53;;;-2.70;88.35
15674;BME280;7937;48.090;16.212;2022-12-18T00:27:26;99112.75;;;-2.84;88.20
15674;BME280;7937;48.090;16.212;2022-12-18T00:30:28;99110.25;;;-3.01;88.78
15674;BME280;7937;48.090;16.212;2022-12-18T00:33:30;99116.31;;;-3.12;89.21
15674;BME280;7937;48.090;16.212;2022-12-18T00:36:33;99112.88;;;-3.28;89.27
15674;BME280;7937;48.090;16.212;2022-12-18T00:39:36;99118.97;;;-3.41;89.33
15674;BME280;7937;48.090;16.212;2022-12-18T00:42:38;99118.09;;;-3.52;90.07
15674;BME280;7937;48.090;16.212;2022-12-18T00:45:58;99119.84;;;-3.69;89.39
15674;BME280;7937;48.090;16.212;2022-12-18T00:49:00;99123.28;;;-3.92;90.23
15674;BME280;7937;48.090;16.212;2022-12-18T00:52:03;99127.56;;;-4.12;90.42
15674;BME280;7937;48.090;16.212;2022-12-18T00:55:05;99126.69;;;-4.25;89.59
15674;BME280;7937;48.090;16.212;2022-12-18T00:58:09;99136.94;;;-4.37;90.45
15674;BME280;7937;48.090;16.212;2022-12-18T01:01:11;99136.94;;;-4.51;90.16
15674;BME280;7937;48.090;16.212;2022-12-18T01:04:15;99144.59;;;-4.64;90.55
15674;BME280;7937;48.090;16.212;2022-12-18T01:07:19;99146.28;;;-4.75;90.79
15674;BME280;7937;48.090;16.212;2022-12-18T01:10:22;99153.97;;;-4.85;91.07
15674;BME280;7937;48.090;16.212;2022-12-18T01:13:25;99155.63;;;-4.94;90.99
15674;BME280;7937;48.090;16.212;2022-12-18T01:16:27;99160.75;;;-5.03;91.33
15674;BME280;7937;48.090;16.212;2022-12-18T01:19:30;99159.84;;;-5.11;91.46
15674;BME280;7937;48.090;16.212;2022-12-18T01:22:32;99163.22;;;-5.20;91.58
15674;BME280;7937;48.090;16.212;2022-12-18T01:25:38;99171.72;;;-5.29;91.36
15674;BME280;7937;48.090;16.212;2022-12-18T01:28:44;99167.41;;;-5.36;91.94
15674;BME280;7937;48.090;16.212;2022-12-18T01:31:46;99167.38;;;-5.40;91.90
15674;BME280;7937;48.090;16.212;2022-12-18T01:34:48;99168.16;;;-5.47;91.78
15674;BME280;7937;48.090;16.212;2022-12-18T01:37:54;99175.00;;;-5.54;91.81
15674;BME280;7937;48.090;16.212;2022-12-18T01:40:58;99174.94;;;-5.62;92.20
15674;BME280;7937;48.090;16.212;2022-12-18T01:44:01;99173.13;;;-5.69;91.89
15674;BME280;7937;48.090;16.212;2022-12-18T01:47:04;99174.84;;;-5.74;92.39
15674;BME280;7937;48.090;16.212;2022-12-18T01:53:22;99192.72;;;-5.84;92.20
15674;BME280;7937;48.090;16.212;2022-12-18T01:56:25;99189.28;;;-5.91;92.34
15674;BME280;7937;48.090;16.212;2022-12-18T01:59:27;99186.63;;;-6.00;92.33
15674;BME280;7937;48.090;16.212;2022-12-18T02:02:32;99189.97;;;-6.07;92.41
15674;BME280;7937;48.090;16.212;2022-12-18T02:09:10;99204.44;;;-6.17;92.68
15674;BME280;7937;48.090;16.212;2022-12-18T02:15:30;99202.59;;;-6.30;92.73
15674;BME280;7937;48.090;16.212;2022-12-18T02:18:41;99199.97;;;-6.35;92.99
15674;BME280;7937;48.090;16.212;2022-12-18T02:25:05;99200.75;;;-6.42;93.32
15674;BME280;7937;48.090;16.212;2022-12-18T02:28:14;99205.81;;;-6.49;92.75
15674;BME280;7937;48.090;16.212;2022-12-18T02:31:21;99211.72;;;-6.53;93.36
15674;BME280;7937;48.090;16.212;2022-12-18T02:34:31;99216.81;;;-6.56;92.90
15674;BME280;7937;48.090;16.212;2022-12-18T02:37:35;99215.00;;;-6.65;92.78
15674;BME280;7937;48.090;16.212;2022-12-18T02:40:40;99213.19;;;-6.74;92.40
15674;BME280;7937;48.090;16.212;2022-12-18T02:44:01;99217.41;;;-6.80;92.73
15674;BME280;7937;48.090;16.212;2022-12-18T02:47:10;99223.25;;;-6.90;92.46
15674;BME280;7937;48.090;16.212;2022-12-18T02:50:35;99217.16;;;-6.97;92.65
15674;BME280;7937;48.090;16.212;2022-12-18T02:53:46;99233.34;;;-7.01;92.93
15674;BME280;7937;48.090;16.212;2022-12-18T02:56:55;99236.69;;;-7.07;93.03
15674;BME280;7937;48.090;16.212;2022-12-18T02:59:59;99234.91;;;-7.12;93.09
15674;BME280;7937;48.090;16.212;2022-12-18T03:03:16;99234.78;;;-7.21;93.19
15674;BME280;7937;48.090;16.212;2022-12-18T03:06:46;99236.41;;;-7.25;93.16
15674;BME280;7937;48.090;16.212;2022-12-18T03:09:53;99244.09;;;-7.26;93.30
15674;BME280;7937;48.090;16.212;2022-12-18T03:13:04;99250.03;;;-7.29;92.83
15674;BME280;7937;48.090;16.212;2022-12-18T03:16:11;99249.22;;;-7.26;94.03
15674;BME280;7937;48.090;16.212;2022-12-18T03:19:21;99245.81;;;-7.25;93.27
15674;BME280;7937;48.090;16.212;2022-12-18T03:22:28;99253.56;;;-7.22;93.82
15674;BME280;7937;48.090;16.212;2022-12-18T03:25:33;99247.63;;;-7.18;94.36
15674;BME280;7937;48.090;16.212;2022-12-18T03:28:40;99239.06;;;-7.20;93.71
15674;BME280;7937;48.090;16.212;2022-12-18T03:31:49;99241.41;;;-7.34;94.14
15674;BME280;7937;48.090;16.212;2022-12-18T03:34:58;99250.66;;;-7.43;94.23
15674;BME280;7937;48.090;16.212;2022-12-18T03:38:06;99254.84;;;-7.47;94.55
15674;BME280;7937;48.090;16.212;2022-12-18T03:41:19;99264.19;;;-7.52;94.36
15674;BME280;7937;48.090;16.212;2022-12-18T03:48:08;99273.50;;;-7.59;94.30
15674;BME280;7937;48.090;16.212;2022-12-18T03:51:40;99275.81;;;-7.71;93.09
15674;BME280;7937;48.090;16.212;2022-12-18T03:54:46;99274.84;;;-7.77;93.34
15674;BME280;7937;48.090;16.212;2022-12-18T03:57:52;99272.28;;;-7.77;93.45
15674;BME280;7937;48.090;16.212;2022-12-18T04:01:00;99272.16;;;-7.85;93.10
15674;BME280;7937;48.090;16.212;2022-12-18T04:04:04;99272.81;;;-7.95;94.06
15674;BME280;7937;48.090;16.212;2022-12-18T04:07:10;99286.41;;;-7.99;93.23
15674;BME280;7937;48.090;16.212;2022-12-18T04:10:14;99287.25;;;-8.00;93.56
15674;BME280;7937;48.090;16.212;2022-12-18T04:13:28;99294.03;;;-8.02;93.22
15674;BME280;7937;48.090;16.212;2022-12-18T04:16:33;99287.97;;;-8.06;93.79
15674;BME280;7937;48.090;16.212;2022-12-18T04:19:37;99296.41;;;-8.11;93.75
15674;BME280;7937;48.090;16.212;2022-12-18T04:22:41;99307.38;;;-8.17;93.36
15674;BME280;7937;48.090;16.212;2022-12-18T04:25:46;99298.84;;;-8.18;94.02
15674;BME280;7937;48.090;16.212;2022-12-18T04:28:55;99305.69;;;-8.16;93.19
15674;BME280;7937;48.090;16.212;2022-12-18T04:31:57;99306.53;;;-8.18;94.07
15674;BME280;7937;48.090;16.212;2022-12-18T04:35:00;99310.78;;;-8.20;93.90
15674;BME280;7937;48.090;16.212;2022-12-18T04:38:02;99315.75;;;-8.26;93.20
15674;BME280;7937;48.090;16.212;2022-12-18T04:41:04;99316.50;;;-8.33;94.16
15674;BME280;7937;48.090;16.212;2022-12-18T04:44:06;99324.06;;;-8.37;94.03
15674;BME280;7937;48.090;16.212;2022-12-18T04:47:08;99317.22;;;-8.40;92.91
15674;BME280;7937;48.090;16.212;2022-12-18T04:50:10;99322.34;;;-8.40;93.13
15674;BME280;7937;48.090;16.212;2022-12-18T04:53:13;99326.53;;;-8.43;93.24
15674;BME280;7937;48.090;16.212;2022-12-18T04:56:15;99329.88;;;-8.46;93.78
15674;BME280;7937;48.090;16.212;2022-12-18T04:59:18;99331.59;;;-8.45;94.43
15674;BME280;7937;48.090;16.212;2022-12-18T05:02:20;99334.16;;;-8.45;92.98
15674;BME280;7937;48.090;16.212;2022-12-18T05:05:22;99342.63;;;-8.49;92.99
15674;BME280;7937;48.090;16.212;2022-12-18T05:08:24;99348.41;;;-8.56;92.93
15674;BME280;7937;48.090;16.212;2022-12-18T05:11:26;99354.28;;;-8.62;93.97
15674;BME280;7937;48.090;16.212;2022-12-18T05:14:28;99348.34;;;-8.61;92.92
15674;BME280;7937;48.090;16.212;2022-12-18T05:17:31;99358.59;;;-8.59;94.04
15674;BME280;7937;48.090;16.212;2022-12-18T05:20:33;99361.09;;;-8.62;93.29
15674;BME280;7937;48.090;16.212;2022-12-18T05:23:35;99361.88;;;-8.65;93.84
15674;BME280;7937;48.090;16.212;2022-12-18T05:26:38;99353.22;;;-8.71;92.57
15674;BME280;7937;48.090;16.212;2022-12-18T05:29:40;99352.25;;;-8.75;92.85
15674;BME280;7937;48.090;16.212;2022-12-18T05:32:42;99353.91;;;-8.77;93.15
15674;BME280;7937;48.090;16.212;2022-12-18T05:35:44;99354.69;;;-8.81;93.32
15674;BME280;7937;48.090;16.212;2022-12-18T05:38:51;99354.66;;;-8.82;92.89
15674;BME280;7937;48.090;16.212;2022-12-18T05:41:53;99354.56;;;-8.85;92.91
15674;BME280;7937;48.090;16.212;2022-12-18T05:44:55;99360.50;;;-8.86;92.40
15674;BME280;7937;48.090;16.212;2022-12-18T05:47:57;99357.00;;;-8.91;93.00
15674;BME280;7937;48.090;16.212;2022-12-18T05:51:08;99356.97;;;-8.93;92.81
15674;BME280;7937;48.090;16.212;2022-12-18T05:54:10;99368.88;;;-8.93;93.41
15674;BME280;7937;48.090;16.212;2022-12-18T05:57:13;99369.66;;;-8.96;93.00
15674;BME280;7937;48.090;16.212;2022-12-18T06:00:15;99384.09;;;-8.98;92.69
15674;BME280;7937;48.090;16.212;2022-12-18T06:03:17;99367.00;;;-9.01;93.06
15674;BME280;7937;48.090;16.212;2022-12-18T06:06:22;99377.25;;;-9.01;92.90
15674;BME280;7937;48.090;16.212;2022-12-18T06:09:25;99390.75;;;-9.05;93.21
15674;BME280;7937;48.090;16.212;2022-12-18T06:12:27;99385.59;;;-9.06;92.89
15674;BME280;7937;48.090;16.212;2022-12-18T06:15:29;99391.53;;;-9.07;93.49
15674;BME280;7937;48.090;16.212;2022-12-18T06:18:32;99396.69;;;-9.06;93.21
15674;BME280;7937;48.090;16.212;2022-12-18T06:21:34;99382.19;;;-9.08;93.20
15674;BME280;7937;48.090;16.212;2022-12-18T06:24:36;99387.16;;;-9.13;93.91
15674;BME280;7937;48.090;16.212;2022-12-18T06:27:39;99393.09;;;-9.14;93.43
15674;BME280;7937;48.090;16.212;2022-12-18T06:30:46;99389.63;;;-9.16;92.86
15674;BME280;7937;48.090;16.212;2022-12-18T06:33:48;99387.91;;;-9.17;93.30
15674;BME280;7937;48.090;16.212;2022-12-18T06:36:50;99393.00;;;-9.17;92.63
15674;BME280;7937;48.090;16.212;2022-12-18T06:39:53;99393.88;;;-9.16;93.55
15674;BME280;7937;48.090;16.212;2022-12-18T06:42:55;99404.91;;;-9.19;93.28
15674;BME280;7937;48.090;16.212;2022-12-18T06:45:59;99403.91;;;-9.24;92.92
15674;BME280;7937;48.090;16.212;2022-12-18T06:49:02;99412.38;;;-9.26;93.14
15674;BME280;7937;48.090;16.212;2022-12-18T06:52:04;99416.78;;;-9.21;92.81
15674;BME280;7937;48.090;16.212;2022-12-18T06:55:10;99411.78;;;-9.16;92.25
15674;BME280;7937;48.090;16.212;2022-12-18T06:58:12;99417.94;;;-9.10;92.62
15674;BME280;7937;48.090;16.212;2022-12-18T07:01:14;99418.78;;;-9.09;92.64
15674;BME280;7937;48.090;16.212;2022-12-18T07:04:17;99428.25;;;-9.05;93.58
15674;BME280;7937;48.090;16.212;2022-12-18T07:07:19;99427.56;;;-9.00;92.56
15674;BME280;7937;48.090;16.212;2022-12-18T07:10:21;99431.03;;;-8.96;92.64
15674;BME280;7937;48.090;16.212;2022-12-18T07:13:23;99438.66;;;-8.98;92.50
15674;BME280;7937;48.090;16.212;2022-12-18T07:16:25;99444.69;;;-8.96;93.21
15674;BME280;7937;48.090;16.212;2022-12-18T07:19:30;99447.28;;;-8.94;92.17
15674;BME280;7937;48.090;16.212;2022-12-18T07:22:32;99452.50;;;-8.91;92.79
15674;BME280;7937;48.090;16.212;2022-12-18T07:25:35;99464.59;;;-8.84;93.30
15674;BME280;7937;48.090;16.212;2022-12-18T07:28:39;99475.81;;;-8.79;92.00
15674;BME280;7937;48.090;16.212;2022-12-18T07:31:41;99473.44;;;-8.71;93.19
15674;BME280;7937;48.090;16.212;2022-12-18T07:34:43;99471.84;;;-8.66;92.06
15674;BME280;7937;48.090;16.212;2022-12-18T07:37:47;99481.44;;;-8.59;92.97
15674;BME280;7937;48.090;16.212;2022-12-18T07:40:49;99485.81;;;-8.53;91.87
15674;BME280;7937;48.090;16.212;2022-12-18T07:43:52;99491.94;;;-8.48;92.19
15674;BME280;7937;48.090;16.212;2022-12-18T07:46:54;99492.81;;;-8.46;92.63
15674;BME280;7937;48.090;16.212;2022-12-18T07:49:56;99488.72;;;-8.40;92.12
15674;BME280;7937;48.090;16.212;2022-12-18T07:52:59;99502.56;;;-8.32;91.14
15674;BME280;7937;48.090;16.212;2022-12-18T07:56:08;99496.63;;;-8.28;91.84
15674;BME280;7937;48.090;16.212;2022-12-18T07:59:30;99503.59;;;-8.22;91.40
15674;BME280;7937;48.090;16.212;2022-12-18T08:02:32;99502.13;;;-8.12;91.15
15674;BME280;7937;48.090;16.212;2022-12-18T08:05:35;99512.56;;;-8.03;91.84
15674;BME280;7937;48.090;16.212;2022-12-18T08:08:37;99515.44;;;-7.90;90.70
15674;BME280;7937;48.090;16.212;2022-12-18T08:11:39;99510.53;;;-7.80;91.61
15674;BME280;7937;48.090;16.212;2022-12-18T08:14:41;99508.28;;;-7.65;91.44
15674;BME280;7937;48.090;16.212;2022-12-18T08:17:43;99506.22;;;-7.41;90.42
15674;BME280;7937;48.090;16.212;2022-12-18T08:20:46;99495.34;;;-7.29;91.00
15674;BME280;7937;48.090;16.212;2022-12-18T08:23:49;99498.94;;;-7.21;90.58
15674;BME280;7937;48.090;16.212;2022-12-18T08:26:52;99490.81;;;-6.97;89.93
15674;BME280;7937;48.090;16.212;2022-12-18T08:30:14;99499.00;;;-6.72;89.78
15674;BME280;7937;48.090;16.212;2022-12-18T08:33:16;99501.31;;;-6.34;89.41
15674;BME280;7937;48.090;16.212;2022-12-18T08:36:21;99498.53;;;-5.92;88.35
15674;BME280;7937;48.090;16.212;2022-12-18T08:39:25;99495.47;;;-5.64;87.36
15674;BME280;7937;48.090;16.212;2022-12-18T08:42:27;99492.41;;;-5.35;87.26
15674;BME280;7937;48.090;16.212;2022-12-18T08:45:48;99493.66;;;-5.01;86.56
15674;BME280;7937;48.090;16.212;2022-12-18T08:48:51;99492.25;;;-4.70;85.57
15674;BME280;7937;48.090;16.212;2022-12-18T08:51:55;99498.47;;;-4.46;85.01
15674;BME280;7937;48.090;16.212;2022-12-18T08:54:58;99495.19;;;-4.29;84.14
15674;BME280;7937;48.090;16.212;2022-12-18T08:58:01;99500.50;;;-4.06;84.17
15674;BME280;7937;48.090;16.212;2022-12-18T09:01:05;99511.81;;;-3.85;84.39
15674;BME280;7937;48.090;16.212;2022-12-18T09:04:08;99512.75;;;-3.69;83.33
15674;BME280;7937;48.090;16.212;2022-12-18T09:07:11;99515.41;;;-3.63;82.29
15674;BME280;7937;48.090;16.212;2022-12-18T09:10:13;99518.91;;;-3.47;83.98
15674;BME280;7937;48.090;16.212;2022-12-18T09:13:16;99513.81;;;-3.33;83.19
15674;BME280;7937;48.090;16.212;2022-12-18T09:16:18;99501.00;;;-3.14;83.48
15674;BME280;7937;48.090;16.212;2022-12-18T09:19:21;99505.34;;;-2.96;83.07
15674;BME280;7937;48.090;16.212;2022-12-18T09:22:23;99503.69;;;-2.74;82.38
15674;BME280;7937;48.090;16.212;2022-12-18T09:25:25;99499.44;;;-2.51;81.78
15674;BME280;7937;48.090;16.212;2022-12-18T09:28:29;99497.66;;;-2.58;80.78
15674;BME280;7937;48.090;16.212;2022-12-18T09:31:31;99503.66;;;-2.83;80.59
15674;BME280;7937;48.090;16.212;2022-12-18T09:34:33;99503.66;;;-2.79;81.59
15674;BME280;7937;48.090;16.212;2022-12-18T09:37:35;99495.06;;;-2.81;80.70
15674;BME280;7937;48.090;16.212;2022-12-18T09:40:45;99487.31;;;-2.84;80.52
15674;BME280;7937;48.090;16.212;2022-12-18T09:43:57;99485.63;;;-2.71;80.51
15674;BME280;7937;48.090;16.212;2022-12-18T09:47:28;99494.28;;;-2.40;80.50
15674;BME280;7937;48.090;16.212;2022-12-18T09:50:38;99496.84;;;-2.25;79.54
15674;BME280;7937;48.090;16.212;2022-12-18T09:53:47;99503.72;;;-2.61;78.84
15674;BME280;7937;48.090;16.212;2022-12-18T09:56:52;99498.44;;;-2.99;80.51
15674;BME280;7937;48.090;16.212;2022-12-18T10:03:15;99497.69;;;-2.52;80.38
15674;BME280;7937;48.090;16.212;2022-12-18T10:06:39;99484.75;;;-2.56;78.60
15674;BME280;7937;48.090;16.212;2022-12-18T10:09:53;99489.06;;;-2.72;79.73
15674;BME280;7937;48.090;16.212;2022-12-18T10:13:15;99479.50;;;-2.98;79.84
15674;BME280;7937;48.090;16.212;2022-12-18T10:25:42;99488.16;;;-2.86;81.14
15674;BME280;7937;48.090;16.212;2022-12-18T10:28:47;99483.81;;;-2.97;80.08
15674;BME280;7937;48.090;16.212;2022-12-18T10:31:51;99487.28;;;-3.02;81.28
15674;BME280;7937;48.090;16.212;2022-12-18T10:34:56;99488.13;;;-3.05;80.84
15674;BME280;7937;48.090;16.212;2022-12-18T10:38:05;99475.19;;;-3.08;80.97
15674;BME280;7937;48.090;16.212;2022-12-18T10:44:28;99470.94;;;-2.86;80.80
15674;BME280;7937;48.090;16.212;2022-12-18T10:47:30;99476.09;;;-2.87;80.44
15674;BME280;7937;48.090;16.212;2022-12-18T10:50:34;99470.06;;;-2.85;80.56
15674;BME280;7937;48.090;16.212;2022-12-18T10:54:00;99465.78;;;-2.69;80.26
15674;BME280;7937;48.090;16.212;2022-12-18T11:00:30;99465.84;;;-2.40;79.35
15674;BME280;7937;48.090;16.212;2022-12-18T11:03:35;99452.88;;;-2.66;78.96
15674;BME280;7937;48.090;16.212;2022-12-18T11:06:56;99461.50;;;-2.75;79.44
15674;BME280;7937;48.090;16.212;2022-12-18T11:10:00;99449.44;;;-2.62;80.25
15674;BME280;7937;48.090;16.212;2022-12-18T11:13:29;99446.88;;;-2.51;79.67
15674;BME280;7937;48.090;16.212;2022-12-18T11:16:36;99450.28;;;-2.58;79.76
15674;BME280;7937;48.090;16.212;2022-12-18T11:19:40;99456.34;;;-2.52;79.90
15674;BME280;7937;48.090;16.212;2022-12-18T11:22:43;99452.03;;;-2.50;80.15
15674;BME280;7937;48.090;16.212;2022-12-18T11:25:59;99446.88;;;-2.62;80.10
15674;BME280;7937;48.090;16.212;2022-12-18T11:29:16;99447.69;;;-2.86;80.51
15674;BME280;7937;48.090;16.212;2022-12-18T11:32:39;99447.69;;;-3.00;81.24
15674;BME280;7937;48.090;16.212;2022-12-18T11:35:50;99451.97;;;-2.95;81.37
15674;BME280;7937;48.090;16.212;2022-12-18T11:38:54;99446.81;;;-2.89;81.79
15674;BME280;7937;48.090;16.212;2022-12-18T11:42:20;99439.97;;;-2.74;81.16
15674;BME280;7937;48.090;16.212;2022-12-18T11:45:34;99435.66;;;-2.82;81.24
15674;BME280;7937;48.090;16.212;2022-12-18T11:48:43;99422.72;;;-2.85;81.46
15674;BME280;7937;48.090;16.212;2022-12-18T11:51:58;99427.84;;;-2.99;81.49
15674;BME280;7937;48.090;16.212;2022-12-18T11:55:10;99425.28;;;-3.04;82.00
15674;BME280;7937;48.090;16.212;2022-12-18T12:08:50;99418.41;;;-3.00;82.27
15674;BME280;7937;48.090;16.212;2022-12-18T12:15:13;99422.72;;;-2.94;82.03
15674;BME280;7937;48.090;16.212;2022-12-18T12:35:25;99406.38;;;-2.84;80.73
15674;BME280;7937;48.090;16.212;2022-12-18T12:38:45;99414.13;;;-2.90;81.58
15674;BME280;7937;48.090;16.212;2022-12-18T12:41:53;99415.84;;;-2.92;81.57
15674;BME280;7937;48.090;16.212;2022-12-18T12:45:28;99404.63;;;-2.94;81.82
15674;BME280;7937;48.090;16.212;2022-12-18T12:51:40;99408.94;;;-2.87;82.26
15674;BME280;7937;48.090;16.212;2022-12-18T12:54:45;99402.06;;;-2.82;82.45
15674;BME280;7937;48.090;16.212;2022-12-18T12:57:57;99413.25;;;-2.74;82.55
15674;BME280;7937;48.090;16.212;2022-12-18T13:04:19;99417.56;;;-2.75;82.64
15674;BME280;7937;48.090;16.212;2022-12-18T13:10:40;99433.06;;;-2.90;82.41
15674;BME280;7937;48.090;16.212;2022-12-18T13:13:51;99439.06;;;-2.94;82.49
15674;BME280;7937;48.090;16.212;2022-12-18T13:17:30;99442.50;;;-2.98;82.62
15674;BME280;7937;48.090;16.212;2022-12-18T13:23:39;99445.03;;;-3.18;83.50
15674;BME280;7937;48.090;16.212;2022-12-18T13:26:43;99434.72;;;-3.21;83.76
15674;BME280;7937;48.090;16.212;2022-12-18T13:29:45;99441.59;;;-3.21;84.21
15674;BME280;7937;48.090;16.212;2022-12-18T13:32:48;99425.25;;;-3.23;84.61
15674;BME280;7937;48.090;16.212;2022-12-18T13:35:51;99427.78;;;-3.32;84.54
15674;BME280;7937;48.090;16.212;2022-12-18T13:46:05;99437.25;;;-3.27;85.75
15674;BME280;7937;48.090;16.212;2022-12-18T13:52:23;99441.56;;;-3.29;84.85
15674;BME280;7937;48.090;16.212;2022-12-18T13:55:26;99450.13;;;-3.39;85.96
15674;BME280;7937;48.090;16.212;2022-12-18T13:58:29;99450.16;;;-3.36;85.73
15674;BME280;7937;48.090;16.212;2022-12-18T14:01:31;99455.31;;;-3.35;85.54
15674;BME280;7937;48.090;16.212;2022-12-18T14:04:35;99457.88;;;-3.38;86.32
15674;BME280;7937;48.090;16.212;2022-12-18T14:07:38;99463.91;;;-3.37;86.63
15674;BME280;7937;48.090;16.212;2022-12-18T14:10:49;99463.91;;;-3.37;86.47
15674;BME280;7937;48.090;16.212;2022-12-18T14:13:52;99468.19;;;-3.42;86.32
15674;BME280;7937;48.090;16.212;2022-12-18T14:16:55;99468.19;;;-3.44;86.22
15674;BME280;7937;48.090;16.212;2022-12-18T14:19:57;99470.75;;;-3.47;86.62
15674;BME280;7937;48.090;16.212;2022-12-18T14:23:00;99473.31;;;-3.47;86.89
15674;BME280;7937;48.090;16.212;2022-12-18T14:26:28;99480.19;;;-3.52;87.26
15674;BME280;7937;48.090;16.212;2022-12-18T14:29:34;99474.31;;;-3.14;86.47
15674;BME280;7937;48.090;16.212;2022-12-18T14:32:36;99491.41;;;-3.42;86.67
15674;BME280;7937;48.090;16.212;2022-12-18T14:35:42;99493.06;;;-3.55;87.26
15674;BME280;7937;48.090;16.212;2022-12-18T14:38:48;99486.16;;;-3.57;87.15
15674;BME280;7937;48.090;16.212;2022-12-18T14:41:53;99487.03;;;-3.57;87.67
15674;BME280;7937;48.090;16.212;2022-12-18T14:48:43;99487.88;;;-3.62;87.71
15674;BME280;7937;48.090;16.212;2022-12-18T14:51:52;99493.91;;;-3.60;87.91
15674;BME280;7937;48.090;16.212;2022-12-18T14:54:55;99495.63;;;-3.61;88.44
15674;BME280;7937;48.090;16.212;2022-12-18T14:57:57;99498.19;;;-3.62;88.32
15674;BME280;7937;48.090;16.212;2022-12-18T15:01:00;99498.19;;;-3.64;88.13
15674;BME280;7937;48.090;16.212;2022-12-18T15:04:04;99501.59;;;-3.66;87.72
15674;BME280;7937;48.090;16.212;2022-12-18T15:07:20;99504.19;;;-3.71;88.33
15674;BME280;7937;48.090;16.212;2022-12-18T15:10:27;99516.19;;;-3.75;88.75
15674;BME280;7937;48.090;16.212;2022-12-18T15:13:30;99503.28;;;-3.75;88.51
15674;BME280;7937;48.090;16.212;2022-12-18T15:16:34;99509.31;;;-3.74;88.50
15674;BME280;7937;48.090;16.212;2022-12-18T15:19:43;99514.44;;;-3.77;88.56
15674;BME280;7937;48.090;16.212;2022-12-18T15:22:47;99511.00;;;-3.76;88.64
15674;BME280;7937;48.090;16.212;2022-12-18T15:25:57;99501.53;;;-3.77;88.96
15674;BME280;7937;48.090;16.212;2022-12-18T15:29:02;99508.44;;;-3.76;88.77
15674;BME280;7937;48.090;16.212;2022-12-18T15:32:18;99503.28;;;-3.75;88.84
15674;BME280;7937;48.090;16.212;2022-12-18T15:35:24;99505.84;;;-3.78;89.05
15674;BME280;7937;48.090;16.212;2022-12-18T15:38:27;99510.97;;;-3.84;89.80
15674;BME280;7937;48.090;16.212;2022-12-18T15:41:34;99517.00;;;-3.83;89.66
15674;BME280;7937;48.090;16.212;2022-12-18T15:44:39;99519.59;;;-3.80;89.56
15674;BME280;7937;48.090;16.212;2022-12-18T15:47:42;99523.88;;;-3.78;89.68
15674;BME280;7937;48.090;16.212;2022-12-18T15:50:54;99525.63;;;-3.77;90.11
15674;BME280;7937;48.090;16.212;2022-12-18T15:54:01;99528.22;;;-3.80;89.91
15674;BME280;7937;48.090;16.212;2022-12-18T15:57:12;99528.19;;;-3.77;90.04
15674;BME280;7937;48.090;16.212;2022-12-18T16:00:36;99532.47;;;-3.79;90.37
15674;BME280;7937;48.090;16.212;2022-12-18T16:03:43;99529.91;;;-3.77;90.65
15674;BME280;7937;48.090;16.212;2022-12-18T16:06:50;99520.50;;;-3.72;89.83
15674;BME280;7937;48.090;16.212;2022-12-18T16:10:14;99524.84;;;-3.69;89.77
15674;BME280;7937;48.090;16.212;2022-12-18T16:13:19;99511.03;;;-3.68;90.84
15674;BME280;7937;48.090;16.212;2022-12-18T16:16:23;99522.22;;;-3.71;90.37
15674;BME280;7937;48.090;16.212;2022-12-18T16:19:27;99519.66;;;-3.73;90.89
15674;BME280;7937;48.090;16.212;2022-12-18T16:22:33;99514.47;;;-3.73;90.86
15674;BME280;7937;48.090;16.212;2022-12-18T16:25:39;99509.31;;;-3.73;90.60
15674;BME280;7937;48.090;16.212;2022-12-18T16:28:43;99520.53;;;-3.70;91.08
15674;BME280;7937;48.090;16.212;2022-12-18T16:31:50;99518.78;;;-3.72;90.96
15674;BME280;7937;48.090;16.212;2022-12-18T16:34:53;99511.91;;;-3.71;90.60
15674;BME280;7937;48.090;16.212;2022-12-18T16:38:03;99509.34;;;-3.69;91.12
15674;BME280;7937;48.090;16.212;2022-12-18T16:41:18;99511.94;;;-3.65;90.84
15674;BME280;7937;48.090;16.212;2022-12-18T16:44:34;99514.53;;;-3.65;91.06
15674;BME280;7937;48.090;16.212;2022-12-18T16:47:40;99512.81;;;-3.63;91.24
15674;BME280;7937;48.090;16.212;2022-12-18T16:50:43;99512.81;;;-3.63;91.19
15674;BME280;7937;48.090;16.212;2022-12-18T16:53:46;99506.78;;;-3.63;91.47
15674;BME280;7937;48.090;16.212;2022-12-18T16:56:50;99507.63;;;-3.66;91.32
15674;BME280;7937;48.090;16.212;2022-12-18T16:59:53;99508.47;;;-3.67;91.46
15674;BME280;7937;48.090;16.212;2022-12-18T17:03:04;99506.78;;;-3.69;90.94
15674;BME280;7937;48.090;16.212;2022-12-18T17:06:07;99499.00;;;-3.68;91.49
15674;BME280;7937;48.090;16.212;2022-12-18T17:09:15;99500.75;;;-3.65;91.76
15674;BME280;7937;48.090;16.212;2022-12-18T17:12:20;99497.34;;;-3.63;91.42
15674;BME280;7937;48.090;16.212;2022-12-18T17:15:24;99500.81;;;-3.59;91.81
15674;BME280;7937;48.090;16.212;2022-12-18T17:18:27;99488.75;;;-3.56;91.68
15674;BME280;7937;48.090;16.212;2022-12-18T17:21:31;99490.50;;;-3.53;91.87
15674;BME280;7937;48.090;16.212;2022-12-18T17:24:36;99486.22;;;-3.53;92.24
15674;BME280;7937;48.090;16.212;2022-12-18T17:27:39;99493.13;;;-3.50;92.11
15674;BME280;7937;48.090;16.212;2022-12-18T17:30:44;99482.78;;;-3.50;91.30
15674;BME280;7937;48.090;16.212;2022-12-18T17:33:47;99486.22;;;-3.51;91.85
15674;BME280;7937;48.090;16.212;2022-12-18T17:36:52;99482.78;;;-3.52;91.83
15674;BME280;7937;48.090;16.212;2022-12-18T17:39:55;99489.66;;;-3.49;92.11
15674;BME280;7937;48.090;16.212;2022-12-18T17:43:01;99491.41;;;-3.50;92.03
15674;BME280;7937;48.090;16.212;2022-12-18T17:46:05;99485.38;;;-3.46;92.34
15674;BME280;7937;48.090;16.212;2022-12-18T17:49:10;99494.84;;;-3.46;92.59
15674;BME280;7937;48.090;16.212;2022-12-18T17:52:14;99487.13;;;-3.42;92.22
15674;BME280;7937;48.090;16.212;2022-12-18T17:55:17;99483.69;;;-3.42;92.84
15674;BME280;7937;48.090;16.212;2022-12-18T17:58:20;99481.94;;;-3.43;92.61
15674;BME280;7937;48.090;16.212;2022-12-18T18:01:24;99496.59;;;-3.41;92.54